createdAt,value
2023-05-12T00:00:55.449Z,6.60
2023-05-12T00:03:22.259Z,5.82
2023-05-12T00:05:48.977Z,6.60
2023-05-12T00:10:42.899Z,7.22
2023-05-12T00:13:09.729Z,6.82
2023-05-12T00:15:37.405Z,6.05
2023-05-12T00:20:31.581Z,6.68
2023-05-12T00:22:58.475Z,5.30
2023-05-12T00:25:25.133Z,6.82
2023-05-12T00:27:51.766Z,6.82
2023-05-12T00:30:18.838Z,6.32
2023-05-12T00:32:46.424Z,7.13
2023-05-12T00:35:13.144Z,5.90
2023-05-12T00:37:39.794Z,5.00
2023-05-12T00:40:06.840Z,6.05
2023-05-12T00:42:34.490Z,6.20
2023-05-12T00:45:01.266Z,6.18
2023-05-12T00:47:28.301Z,5.82
2023-05-12T00:49:55.059Z,6.20
2023-05-12T00:52:21.846Z,5.68
2023-05-12T00:54:48.773Z,5.72
2023-05-12T00:57:15.542Z,6.28
2023-05-12T00:59:42.187Z,5.55
2023-05-12T01:02:09.078Z,6.97
2023-05-12T01:04:38.825Z,5.78
2023-05-12T01:07:10.124Z,5.65
2023-05-12T01:09:39.487Z,6.13
2023-05-12T01:12:06.255Z,6.78
2023-05-12T01:14:34.429Z,5.38
2023-05-12T01:17:03.766Z,6.95
2023-05-12T01:19:34.719Z,7.22
2023-05-12T01:24:31.047Z,6.72
2023-05-12T01:26:58.353Z,6.40
2023-05-12T01:29:25.319Z,6.50
2023-05-12T01:31:52.043Z,5.93
2023-05-12T01:34:18.807Z,6.10
2023-05-12T01:36:49.288Z,6.55
2023-05-12T01:39:16.051Z,6.82
2023-05-12T01:41:42.973Z,7.18
2023-05-12T01:44:09.733Z,6.47
2023-05-12T01:46:36.779Z,6.35
2023-05-12T01:49:04.611Z,6.15
2023-05-12T01:51:31.649Z,6.65
2023-05-12T01:58:56.347Z,6.28
2023-05-12T02:01:25.742Z,6.45
2023-05-12T02:03:52.586Z,6.70
2023-05-12T02:06:19.914Z,7.85
2023-05-12T02:08:46.720Z,6.88
2023-05-12T02:11:13.536Z,7.00
2023-05-12T02:16:07.897Z,7.50
2023-05-12T02:18:34.610Z,6.60
2023-05-12T02:21:01.354Z,6.22
2023-05-12T02:23:29.416Z,6.28
2023-05-12T02:25:56.061Z,5.97
2023-05-12T02:28:22.859Z,6.53
2023-05-12T02:30:50.402Z,8.05
2023-05-12T02:33:17.610Z,7.03
2023-05-12T02:35:44.953Z,8.63
2023-05-12T02:38:12.173Z,6.00
2023-05-12T02:40:38.879Z,5.00
2023-05-12T02:43:05.681Z,5.75
2023-05-12T02:45:32.846Z,6.90
2023-05-12T02:47:59.655Z,5.40
2023-05-12T02:50:26.351Z,6.75
2023-05-12T02:52:52.973Z,8.05
2023-05-12T02:55:19.711Z,5.55
2023-05-12T02:57:46.332Z,5.65
2023-05-12T03:00:13.213Z,5.38
2023-05-12T03:02:41.792Z,5.85
2023-05-12T03:05:09.414Z,5.20
2023-05-12T03:07:36.870Z,5.45
2023-05-12T03:10:04.096Z,4.80
2023-05-12T03:12:31.200Z,5.15
2023-05-12T03:15:00.758Z,6.25
2023-05-12T03:19:54.607Z,5.35
2023-05-12T03:22:21.322Z,5.43
2023-05-12T03:24:47.970Z,6.03
2023-05-12T03:27:14.621Z,6.50
2023-05-12T03:29:41.305Z,6.18
2023-05-12T03:32:08.849Z,5.75
2023-05-12T03:34:35.662Z,5.50
2023-05-12T03:37:02.313Z,6.22
2023-05-12T03:41:56.049Z,5.38
2023-05-12T03:44:22.666Z,6.20
2023-05-12T03:46:50.124Z,6.13
2023-05-12T03:49:16.867Z,5.35
2023-05-12T03:51:43.687Z,5.88
2023-05-12T03:54:12.097Z,5.35
2023-05-12T03:56:38.896Z,6.35
2023-05-12T03:59:05.644Z,5.20
2023-05-12T04:04:01.201Z,5.70
2023-05-12T04:06:27.915Z,5.32
2023-05-12T04:08:54.580Z,5.82
2023-05-12T04:11:21.420Z,6.20
2023-05-12T04:16:14.928Z,6.10
2023-05-12T04:18:41.683Z,7.32
2023-05-12T04:21:08.369Z,6.20
2023-05-12T04:26:03.738Z,6.88
2023-05-12T04:28:31.430Z,5.30
2023-05-12T04:31:02.588Z,5.53
2023-05-12T04:33:29.341Z,7.10
2023-05-12T04:38:24.135Z,4.45
2023-05-12T04:40:50.916Z,5.10
2023-05-12T04:45:47.286Z,4.93
2023-05-12T04:48:14.252Z,4.63
2023-05-12T04:50:41.600Z,4.75
2023-05-12T04:53:08.603Z,6.35
2023-05-12T04:58:03.471Z,4.28
2023-05-12T05:00:30.594Z,5.28
2023-05-12T05:02:57.556Z,4.78
2023-05-12T05:05:24.308Z,4.55
2023-05-12T05:07:51.518Z,4.55
2023-05-12T05:10:18.635Z,5.82
2023-05-12T05:12:45.413Z,5.55
2023-05-12T05:15:12.328Z,4.55
2023-05-12T05:20:11.597Z,4.35
2023-05-12T05:22:39.685Z,3.90
2023-05-12T05:25:07.703Z,5.47
2023-05-12T05:27:34.396Z,4.53
2023-05-12T05:30:01.149Z,4.25
2023-05-12T05:32:29.039Z,4.43
2023-05-12T05:34:55.721Z,4.47
2023-05-12T05:37:22.389Z,6.07
2023-05-12T05:42:16.010Z,5.10
2023-05-12T05:47:11.155Z,6.30
2023-05-12T05:49:38.080Z,4.93
2023-05-12T05:52:05.477Z,5.32
2023-05-12T05:54:32.112Z,4.90
2023-05-12T05:57:02.736Z,4.90
2023-05-12T05:59:30.339Z,4.35
2023-05-12T06:01:57.057Z,4.60
2023-05-12T06:04:23.872Z,4.30
2023-05-12T06:09:17.947Z,4.13
2023-05-12T06:11:44.803Z,5.78
2023-05-12T06:14:11.872Z,4.35
2023-05-12T06:16:38.676Z,4.53
2023-05-12T06:19:05.382Z,4.57
2023-05-12T06:21:33.575Z,6.25
2023-05-12T06:24:01.435Z,5.53
2023-05-12T06:26:28.075Z,4.38
2023-05-12T06:31:23.235Z,4.10
2023-05-12T06:33:50.039Z,5.82
2023-05-12T06:38:43.717Z,4.70
2023-05-12T06:43:42.939Z,5.75
2023-05-12T06:46:09.778Z,4.18
2023-05-12T06:48:36.471Z,5.35
2023-05-12T06:51:03.791Z,4.70
2023-05-12T06:53:30.940Z,7.80
2023-05-12T06:55:57.623Z,5.32
2023-05-12T06:58:24.290Z,4.10
2023-05-12T07:00:50.922Z,5.90
2023-05-12T07:05:44.712Z,5.72
2023-05-12T07:08:11.436Z,5.35
2023-05-12T07:10:38.567Z,6.22
2023-05-12T07:13:05.241Z,6.00
2023-05-12T07:15:32.844Z,5.32
2023-05-12T07:17:59.810Z,5.82
2023-05-12T07:20:31.622Z,7.68
2023-05-12T07:23:17.203Z,5.53
2023-05-12T07:25:43.935Z,4.82
2023-05-12T07:28:11.561Z,7.03
2023-05-12T07:33:06.748Z,5.80
2023-05-12T07:35:33.491Z,5.53
2023-05-12T07:38:00.153Z,5.10
2023-05-12T07:40:26.863Z,7.07
2023-05-12T07:42:53.822Z,8.23
2023-05-12T07:47:50.986Z,6.60
2023-05-12T07:50:18.237Z,5.53
2023-05-12T07:52:51.545Z,5.53
2023-05-12T07:55:19.258Z,4.78
2023-05-12T07:57:46.391Z,4.95
2023-05-12T08:00:13.571Z,7.88
2023-05-12T08:02:41.027Z,6.28
2023-05-12T08:07:37.391Z,5.43
2023-05-12T08:10:04.703Z,6.00
2023-05-12T08:12:31.363Z,5.00
2023-05-12T08:14:58.086Z,6.70
2023-05-12T08:17:27.028Z,5.57
2023-05-12T08:22:21.704Z,5.57
2023-05-12T08:24:48.438Z,5.75
2023-05-12T08:27:15.133Z,4.32
2023-05-12T08:29:41.785Z,5.45
2023-05-12T08:34:35.401Z,4.20
2023-05-12T08:39:32.189Z,4.57
2023-05-12T08:42:09.564Z,5.15
2023-05-12T08:44:39.692Z,5.90
2023-05-12T08:47:06.847Z,5.10
2023-05-12T08:49:35.433Z,5.10
2023-05-12T08:52:02.668Z,5.07
2023-05-12T08:54:29.677Z,4.25
2023-05-12T09:04:22.088Z,4.43
2023-05-12T09:06:49.157Z,4.55
2023-05-12T09:09:17.169Z,3.78
2023-05-12T09:11:44.292Z,4.03
2023-05-12T09:14:19.162Z,4.47
2023-05-12T09:16:48.964Z,4.00
2023-05-12T09:19:19.483Z,3.97
2023-05-12T09:21:46.169Z,3.60
2023-05-12T09:24:12.816Z,4.88
2023-05-12T09:26:50.190Z,5.28
2023-05-12T09:29:27.807Z,4.38
2023-05-12T09:31:58.850Z,4.32
2023-05-12T09:34:29.320Z,4.55
2023-05-12T09:39:25.908Z,4.53
2023-05-12T09:41:53.040Z,4.10
2023-05-12T09:46:47.975Z,4.43
2023-05-12T09:49:28.191Z,3.85
2023-05-12T09:51:59.025Z,3.97
2023-05-12T09:54:26.897Z,3.78
2023-05-12T09:56:55.092Z,4.00
2023-05-12T09:59:27.020Z,3.90
2023-05-12T10:01:55.054Z,3.60
2023-05-12T10:04:21.991Z,3.55
2023-05-12T10:06:49.230Z,3.47
2023-05-12T10:09:35.394Z,4.20
2023-05-12T10:12:25.764Z,3.33
2023-05-12T10:14:52.653Z,3.40
2023-05-12T10:17:28.536Z,3.67
2023-05-12T10:20:07.256Z,3.22
2023-05-12T10:22:34.277Z,3.28
2023-05-12T10:27:36.245Z,2.90
2023-05-12T10:30:07.853Z,3.63
2023-05-12T10:32:34.805Z,3.15
2023-05-12T10:35:11.321Z,2.95
2023-05-12T10:37:38.106Z,2.97
2023-05-12T10:42:40.038Z,2.85
2023-05-12T10:47:45.239Z,2.50
2023-05-12T10:50:15.535Z,2.80
2023-05-12T10:55:35.399Z,2.67
2023-05-12T10:58:11.379Z,2.75
2023-05-12T11:00:54.482Z,2.05
2023-05-12T11:03:28.727Z,2.50
2023-05-12T11:06:04.075Z,2.38
2023-05-12T11:08:51.557Z,2.70
2023-05-12T11:11:22.472Z,2.75
2023-05-12T11:13:51.746Z,2.33
2023-05-12T11:16:18.457Z,2.70
2023-05-12T11:18:45.194Z,2.92
2023-05-12T11:21:12.415Z,2.65
2023-05-12T11:23:39.523Z,2.50
2023-05-12T11:26:07.541Z,2.70
2023-05-12T11:28:40.647Z,2.22
2023-05-12T11:31:07.426Z,2.60
2023-05-12T11:33:34.062Z,2.80
2023-05-12T11:38:32.066Z,3.60
2023-05-12T11:43:26.378Z,2.47
2023-05-12T11:45:53.119Z,2.67
2023-05-12T11:48:21.766Z,2.35
2023-05-12T11:50:50.721Z,2.83
2023-05-12T11:53:19.226Z,3.03
2023-05-12T11:55:53.595Z,2.35
2023-05-12T11:58:26.799Z,3.00
2023-05-12T12:00:53.926Z,2.88
2023-05-12T12:03:20.785Z,3.45
2023-05-12T12:05:58.024Z,2.63
2023-05-12T12:08:27.565Z,3.22
2023-05-12T12:15:53.056Z,2.70
2023-05-12T12:18:19.865Z,6.57
2023-05-12T12:20:47.030Z,3.20
2023-05-12T12:23:13.676Z,3.10
2023-05-12T12:25:41.832Z,3.50
2023-05-12T12:28:08.552Z,2.83
2023-05-12T12:30:35.269Z,2.75
2023-05-12T12:33:02.926Z,2.97
2023-05-12T12:35:29.682Z,3.38
2023-05-12T12:37:56.424Z,3.28
2023-05-12T12:40:25.634Z,2.53
2023-05-12T12:42:52.489Z,3.05
2023-05-12T12:45:20.508Z,2.75
2023-05-12T12:47:52.742Z,2.65
2023-05-12T12:55:16.028Z,3.03
2023-05-12T12:57:42.784Z,3.47
2023-05-12T13:02:37.103Z,2.60
2023-05-12T13:05:06.216Z,3.10
2023-05-12T13:07:33.304Z,2.35
2023-05-12T13:12:26.889Z,2.63
2023-05-12T13:14:53.512Z,2.17
2023-05-12T13:17:20.196Z,2.75
2023-05-12T13:19:49.682Z,2.65
2023-05-12T13:22:16.361Z,2.50
2023-05-12T13:27:10.111Z,2.80
2023-05-12T13:29:37.181Z,3.92
2023-05-12T13:34:30.910Z,2.08
2023-05-12T13:36:58.091Z,2.92
2023-05-12T13:39:24.853Z,2.70
2023-05-12T13:41:51.577Z,3.30
2023-05-12T13:44:18.452Z,3.25
2023-05-12T13:46:45.430Z,2.50
2023-05-12T13:51:39.733Z,2.40
2023-05-12T13:56:33.391Z,2.53
2023-05-12T13:59:00.080Z,2.78
2023-05-12T14:01:26.781Z,2.70
2023-05-12T14:03:53.469Z,2.60
2023-05-12T14:06:20.149Z,3.20
2023-05-12T14:08:46.983Z,2.60
2023-05-12T14:11:13.812Z,3.10
2023-05-12T14:16:07.722Z,2.33
2023-05-12T14:18:34.382Z,3.08
2023-05-12T14:23:29.095Z,2.63
2023-05-12T14:25:55.804Z,2.72
2023-05-12T14:28:23.642Z,2.65
2023-05-12T14:30:50.651Z,3.30
2023-05-12T14:33:17.418Z,2.83
2023-05-12T14:35:52.924Z,3.95
2023-05-12T14:38:26.288Z,2.78
2023-05-12T14:40:53.088Z,3.35
2023-05-12T14:43:19.758Z,2.60
2023-05-12T14:45:54.640Z,2.30
2023-05-12T14:48:22.496Z,2.42
2023-05-12T14:50:52.044Z,2.40
2023-05-12T14:53:18.673Z,2.50
2023-05-12T14:55:45.956Z,2.42
2023-05-12T14:58:12.649Z,2.42
2023-05-12T15:00:39.912Z,2.35
2023-05-12T15:08:21.671Z,2.60
2023-05-12T15:10:48.631Z,3.58
2023-05-12T15:13:17.960Z,2.58
2023-05-12T15:15:44.603Z,1.98
2023-05-12T15:18:11.304Z,2.35
2023-05-12T15:23:05.489Z,2.25
2023-05-12T15:25:32.350Z,2.13
2023-05-12T15:27:58.956Z,1.70
2023-05-12T15:30:26.162Z,2.60
2023-05-12T15:32:52.857Z,1.73
2023-05-12T15:35:19.809Z,2.55
2023-05-12T15:37:46.850Z,2.00
2023-05-12T15:45:09.883Z,2.00
2023-05-12T15:47:36.707Z,1.77
2023-05-12T15:50:04.242Z,2.55
2023-05-12T15:52:31.172Z,2.30
2023-05-12T15:55:00.598Z,3.28
2023-05-12T15:57:27.278Z,2.42
2023-05-12T15:59:58.498Z,1.92
2023-05-12T16:02:25.310Z,2.40
2023-05-12T16:07:22.125Z,2.13
2023-05-12T16:09:48.722Z,2.03
2023-05-12T16:12:15.632Z,2.15
2023-05-12T16:14:42.273Z,2.10
2023-05-12T16:17:09.074Z,1.85
2023-05-12T16:19:35.921Z,1.63
2023-05-12T16:22:02.650Z,1.83
2023-05-12T16:24:29.406Z,2.05
2023-05-12T16:26:56.517Z,2.05
2023-05-12T16:29:23.175Z,2.17
2023-05-12T16:31:50.136Z,5.32
2023-05-12T16:34:16.861Z,1.80
2023-05-12T16:36:43.712Z,2.03
2023-05-12T16:39:10.510Z,1.98
2023-05-12T16:41:37.156Z,2.67
2023-05-12T16:44:03.992Z,2.15
2023-05-12T16:46:32.864Z,1.60
2023-05-12T16:48:59.650Z,1.50
2023-05-12T16:53:57.894Z,2.10
2023-05-12T16:56:25.010Z,2.60
2023-05-12T16:58:52.013Z,2.25
2023-05-12T17:01:18.878Z,1.70
2023-05-12T17:03:45.686Z,2.28
2023-05-12T17:06:13.278Z,1.38
2023-05-12T17:08:39.932Z,1.98
2023-05-12T17:11:06.739Z,2.28
2023-05-12T17:13:35.524Z,1.90
2023-05-12T17:16:03.010Z,2.42
2023-05-12T17:18:29.872Z,1.88
2023-05-12T17:20:56.541Z,1.92
2023-05-12T17:23:23.155Z,2.13
2023-05-12T17:25:49.822Z,2.67
2023-05-12T17:28:16.541Z,2.75
2023-05-12T17:30:43.306Z,2.05
2023-05-12T17:33:09.977Z,2.50
2023-05-12T17:35:36.699Z,2.20
2023-05-12T17:38:03.482Z,2.85
2023-05-12T17:40:30.219Z,2.08
2023-05-12T17:42:56.994Z,2.00
2023-05-12T17:47:51.379Z,2.53
2023-05-12T17:50:18.431Z,1.50
2023-05-12T17:52:45.193Z,3.28
2023-05-12T17:55:12.100Z,2.40
2023-05-12T17:57:38.723Z,1.63
2023-05-12T18:00:10.221Z,1.50
2023-05-12T18:02:43.790Z,1.20
2023-05-12T18:05:10.714Z,2.17
2023-05-12T18:07:37.332Z,1.60
2023-05-12T18:10:06.714Z,1.75
2023-05-12T18:15:00.286Z,1.83
2023-05-12T18:17:27.957Z,2.63
2023-05-12T18:19:54.714Z,2.65
2023-05-12T18:22:21.471Z,1.33
2023-05-12T18:24:48.162Z,2.70
2023-05-12T18:27:14.789Z,1.73
2023-05-12T18:29:41.608Z,2.40
2023-05-12T18:32:08.613Z,1.67
2023-05-12T18:41:56.667Z,3.72
2023-05-12T18:49:17.196Z,2.33
2023-05-12T18:51:43.854Z,2.90
2023-05-12T18:54:10.731Z,2.20
2023-05-12T18:59:04.248Z,4.05
2023-05-12T19:01:31.838Z,6.93
2023-05-12T19:03:58.529Z,5.88
2023-05-12T19:06:25.182Z,6.75
2023-05-12T19:08:51.922Z,5.00
2023-05-12T19:13:47.384Z,5.32
2023-05-12T19:18:40.952Z,4.97
2023-05-12T19:23:34.948Z,4.22
2023-05-12T19:28:29.025Z,4.40
2023-05-12T19:30:55.717Z,2.50
2023-05-12T19:33:22.356Z,2.70
2023-05-12T19:35:49.094Z,2.10
2023-05-12T19:38:15.820Z,3.15
2023-05-12T19:40:42.473Z,2.30
2023-05-12T19:43:10.781Z,3.13
2023-05-12T19:45:37.475Z,2.35
2023-05-12T19:48:04.362Z,2.72
2023-05-12T19:50:31.275Z,3.85
2023-05-12T19:52:57.929Z,2.00
2023-05-12T19:55:24.776Z,2.72
2023-05-12T19:57:52.099Z,2.95
2023-05-12T20:00:19.551Z,2.78
2023-05-12T20:02:46.351Z,2.85
2023-05-12T20:05:13.383Z,3.00
2023-05-12T20:10:07.416Z,4.43
2023-05-12T20:12:34.172Z,3.08
2023-05-12T20:15:00.804Z,3.45
2023-05-12T20:17:27.932Z,3.00
2023-05-12T20:19:54.650Z,2.55
2023-05-12T20:22:22.154Z,3.58
2023-05-12T20:24:48.772Z,3.60
2023-05-12T20:29:42.354Z,4.03
2023-05-12T20:34:35.847Z,3.22
2023-05-12T20:37:02.533Z,2.72
2023-05-12T20:41:56.278Z,4.20
2023-05-12T20:44:23.026Z,3.75
2023-05-12T20:46:49.916Z,2.90
2023-05-12T20:49:16.612Z,3.33
2023-05-12T20:54:10.178Z,3.53
2023-05-12T20:56:36.868Z,3.05
2023-05-12T20:59:03.534Z,3.63
2023-05-12T21:03:57.303Z,2.70
2023-05-12T21:08:50.911Z,3.45
2023-05-12T21:13:47.192Z,3.45
2023-05-12T21:18:41.915Z,4.20
2023-05-12T21:21:08.691Z,5.07
2023-05-12T21:33:25.157Z,3.90
2023-05-12T21:35:51.863Z,4.70
2023-05-12T21:38:18.559Z,4.50
2023-05-12T21:40:49.108Z,4.70
2023-05-12T21:43:15.805Z,4.43
2023-05-12T21:45:42.427Z,6.13
2023-05-12T21:48:09.158Z,5.97
2023-05-12T21:53:02.793Z,5.40
2023-05-12T21:55:29.473Z,5.07
2023-05-12T22:00:23.684Z,5.60
2023-05-12T22:02:52.754Z,4.22
2023-05-12T22:05:19.708Z,3.80
2023-05-12T22:07:46.726Z,4.10
2023-05-12T22:10:13.439Z,4.75
2023-05-12T22:12:43.247Z,3.80
2023-05-12T22:17:37.700Z,4.60
2023-05-12T22:27:34.896Z,4.80
2023-05-12T22:30:01.713Z,4.45
2023-05-12T22:32:29.056Z,8.52
2023-05-12T22:34:56.234Z,7.22
2023-05-12T22:37:22.893Z,5.32
2023-05-12T22:42:16.424Z,4.38
2023-05-12T22:44:43.091Z,3.88
2023-05-12T22:47:09.829Z,4.30
2023-05-12T22:54:30.541Z,4.25
2023-05-12T22:56:57.180Z,4.45
2023-05-12T22:59:23.917Z,4.85
2023-05-12T23:01:50.587Z,5.82
2023-05-12T23:04:17.420Z,6.13
2023-05-12T23:09:11.058Z,4.97
2023-05-12T23:11:37.735Z,6.47
2023-05-12T23:14:04.465Z,6.30
2023-05-12T23:16:31.108Z,9.65
2023-05-12T23:18:58.003Z,4.95
2023-05-12T23:21:24.699Z,4.97
2023-05-12T23:26:18.351Z,4.00
2023-05-12T23:28:44.999Z,5.07
2023-05-12T23:31:11.795Z,4.07
2023-05-12T23:36:05.618Z,3.88
2023-05-12T23:38:32.295Z,3.92
2023-05-12T23:40:59.118Z,4.13
2023-05-12T23:43:25.808Z,4.03
2023-05-12T23:45:52.565Z,4.57
2023-05-12T23:48:19.263Z,3.90
2023-05-12T23:50:45.914Z,5.20
2023-05-12T23:53:12.641Z,3.97
2023-05-12T23:55:39.310Z,4.05
2023-05-12T23:58:06.089Z,3.55
